sensor_id;sensor_type;location;lat;lon;timestamp;pressure;altitude;pressure_sealevel;temperature;humidity
17054;BME280;8643;48.824;11.422;2023-06-14T00:00:08;96497.06;;;12.82;60.23
17054;BME280;8643;48.824;11.422;2023-06-14T00:02:40;96501.16;;;12.56;61.25
17054;BME280;8643;48.824;11.422;2023-06-14T00:05:09;96499.31;;;12.60;60.76
17054;BME280;8643;48.824;11.422;2023-06-14T00:07:41;96501.44;;;12.51;61.52
17054;BME280;8643;48.824;11.422;2023-06-14T00:10:12;96492.56;;;12.58;61.12
17054;BME280;8643;48.824;11.422;2023-06-14T00:12:41;96496.72;;;12.68;61.30
17054;BME280;8643;48.824;11.422;2023-06-14T00:15:10;96491.69;;;12.70;61.34
17054;BME280;8643;48.824;11.422;2023-06-14T00:17:38;96496.06;;;12.90;60.63
17054;BME280;8643;48.824;11.422;2023-06-14T00:20:08;96501.75;;;12.97;60.87
17054;BME280;8643;48.824;11.422;2023-06-14T00:22:37;96498.38;;;12.88;60.71
17054;BME280;8643;48.824;11.422;2023-06-14T00:25:07;96495.50;;;12.81;61.16
17054;BME280;8643;48.824;11.422;2023-06-14T00:27:52;96490.16;;;12.56;62.79
17054;BME280;8643;48.824;11.422;2023-06-14T00:30:20;96489.84;;;12.42;62.34
17054;BME280;8643;48.824;11.422;2023-06-14T00:32:49;96485.50;;;12.41;63.76
17054;BME280;8643;48.824;11.422;2023-06-14T00:35:19;96491.06;;;12.44;62.88
17054;BME280;8643;48.824;11.422;2023-06-14T00:37:47;96489.84;;;12.42;63.53
17054;BME280;8643;48.824;11.422;2023-06-14T00:40:16;96490.56;;;12.39;63.38
17054;BME280;8643;48.824;11.422;2023-06-14T00:42:45;96492.41;;;12.35;64.93
17054;BME280;8643;48.824;11.422;2023-06-14T00:45:15;96495.69;;;12.24;65.18
17054;BME280;8643;48.824;11.422;2023-06-14T00:47:46;96490.91;;;12.21;65.35
17054;BME280;8643;48.824;11.422;2023-06-14T00:50:16;96483.72;;;12.17;65.19
17054;BME280;8643;48.824;11.422;2023-06-14T00:52:45;96491.41;;;12.27;65.29
17054;BME280;8643;48.824;11.422;2023-06-14T00:55:14;96481.75;;;12.17;65.20
17054;BME280;8643;48.824;11.422;2023-06-14T00:57:43;96485.81;;;12.07;66.00
17054;BME280;8643;48.824;11.422;2023-06-14T01:00:15;96483.63;;;12.13;65.91
17054;BME280;8643;48.824;11.422;2023-06-14T01:02:44;96484.25;;;12.06;66.52
17054;BME280;8643;48.824;11.422;2023-06-14T01:05:13;96486.81;;;12.15;66.00
17054;BME280;8643;48.824;11.422;2023-06-14T01:07:57;96484.84;;;12.16;66.27
17054;BME280;8643;48.824;11.422;2023-06-14T01:10:40;96490.53;;;12.23;66.00
17054;BME280;8643;48.824;11.422;2023-06-14T01:13:15;96489.91;;;12.14;66.94
17054;BME280;8643;48.824;11.422;2023-06-14T01:15:49;96493.19;;;12.03;67.40
17054;BME280;8643;48.824;11.422;2023-06-14T01:18:19;96483.44;;;12.06;66.75
17054;BME280;8643;48.824;11.422;2023-06-14T01:20:47;96487.06;;;11.94;67.63
17054;BME280;8643;48.824;11.422;2023-06-14T01:23:20;96491.16;;;11.88;68.19
17054;BME280;8643;48.824;11.422;2023-06-14T01:25:50;96493.69;;;11.65;70.74
17054;BME280;8643;48.824;11.422;2023-06-14T01:28:21;96490.69;;;11.70;69.35
17054;BME280;8643;48.824;11.422;2023-06-14T01:30:53;96496.06;;;11.66;69.59
17054;BME280;8643;48.824;11.422;2023-06-14T01:33:26;96496.00;;;11.50;70.52
17054;BME280;8643;48.824;11.422;2023-06-14T01:35:58;96492.59;;;11.53;70.95
17054;BME280;8643;48.824;11.422;2023-06-14T01:38:32;96494.28;;;11.58;70.98
17054;BME280;8643;48.824;11.422;2023-06-14T01:41:01;96490.34;;;11.71;70.27
17054;BME280;8643;48.824;11.422;2023-06-14T01:43:31;96496.63;;;11.72;70.61
17054;BME280;8643;48.824;11.422;2023-06-14T01:46:05;96497.59;;;11.80;69.89
17054;BME280;8643;48.824;11.422;2023-06-14T01:48:35;96492.63;;;11.69;71.25
17054;BME280;8643;48.824;11.422;2023-06-14T01:51:04;96492.78;;;11.61;71.59
17054;BME280;8643;48.824;11.422;2023-06-14T01:53:34;96487.44;;;11.52;72.29
17054;BME280;8643;48.824;11.422;2023-06-14T01:56:03;96488.13;;;11.49;72.89
17054;BME280;8643;48.824;11.422;2023-06-14T01:58:32;96487.59;;;11.43;73.42
17054;BME280;8643;48.824;11.422;2023-06-14T02:01:01;96488.44;;;11.31;74.08
17054;BME280;8643;48.824;11.422;2023-06-14T02:03:30;96482.97;;;11.31;74.22
17054;BME280;8643;48.824;11.422;2023-06-14T02:05:58;96489.41;;;11.51;73.74
17054;BME280;8643;48.824;11.422;2023-06-14T02:08:28;96490.19;;;11.24;75.37
17054;BME280;8643;48.824;11.422;2023-06-14T02:10:57;96492.38;;;11.18;76.89
17054;BME280;8643;48.824;11.422;2023-06-14T02:13:26;96489.31;;;11.07;76.71
17054;BME280;8643;48.824;11.422;2023-06-14T02:15:55;96487.59;;;11.03;77.62
17054;BME280;8643;48.824;11.422;2023-06-14T02:18:24;96494.44;;;11.09;77.25
17054;BME280;8643;48.824;11.422;2023-06-14T02:20:53;96484.16;;;11.18;76.85
17054;BME280;8643;48.824;11.422;2023-06-14T02:23:22;96494.53;;;11.12;78.17
17054;BME280;8643;48.824;11.422;2023-06-14T02:25:51;96495.22;;;11.22;77.16
17054;BME280;8643;48.824;11.422;2023-06-14T02:28:21;96490.38;;;11.31;76.97
17054;BME280;8643;48.824;11.422;2023-06-14T02:30:50;96496.78;;;11.35;75.94
17054;BME280;8643;48.824;11.422;2023-06-14T02:33:23;96495.13;;;11.18;77.07
17054;BME280;8643;48.824;11.422;2023-06-14T02:35:52;96488.75;;;10.89;78.13
17054;BME280;8643;48.824;11.422;2023-06-14T02:38:21;96485.34;;;10.80;79.45
17054;BME280;8643;48.824;11.422;2023-06-14T02:40:50;96493.13;;;10.78;79.11
17054;BME280;8643;48.824;11.422;2023-06-14T02:43:20;96491.63;;;10.80;79.32
17054;BME280;8643;48.824;11.422;2023-06-14T02:45:49;96494.44;;;10.96;79.16
17054;BME280;8643;48.824;11.422;2023-06-14T02:48:18;96502.31;;;10.98;78.56
17054;BME280;8643;48.824;11.422;2023-06-14T02:50:47;96497.78;;;11.02;77.94
17054;BME280;8643;48.824;11.422;2023-06-14T02:53:16;96497.97;;;11.09;78.31
17054;BME280;8643;48.824;11.422;2023-06-14T02:55:44;96497.78;;;11.02;78.54
17054;BME280;8643;48.824;11.422;2023-06-14T02:58:15;96500.94;;;11.04;78.55
17054;BME280;8643;48.824;11.422;2023-06-14T03:00:45;96491.59;;;11.05;78.29
17054;BME280;8643;48.824;11.422;2023-06-14T03:03:14;96496.31;;;10.92;79.40
17054;BME280;8643;48.824;11.422;2023-06-14T03:05:51;96495.63;;;10.83;80.87
17054;BME280;8643;48.824;11.422;2023-06-14T03:08:23;96492.97;;;10.87;80.33
17054;BME280;8643;48.824;11.422;2023-06-14T03:10:59;96496.41;;;10.96;80.31
17054;BME280;8643;48.824;11.422;2023-06-14T03:13:29;96494.69;;;10.91;80.65
17054;BME280;8643;48.824;11.422;2023-06-14T03:16:01;96499.03;;;10.92;80.89
17054;BME280;8643;48.824;11.422;2023-06-14T03:18:33;96498.47;;;10.87;81.02
17054;BME280;8643;48.824;11.422;2023-06-14T03:21:04;96493.13;;;10.90;81.05
17054;BME280;8643;48.824;11.422;2023-06-14T03:23:33;96497.47;;;10.79;81.55
17054;BME280;8643;48.824;11.422;2023-06-14T03:26:04;96507.84;;;10.86;81.05
17054;BME280;8643;48.824;11.422;2023-06-14T03:28:33;96504.84;;;10.91;81.19
17054;BME280;8643;48.824;11.422;2023-06-14T03:31:03;96507.28;;;10.68;82.30
17054;BME280;8643;48.824;11.422;2023-06-14T03:33:33;96510.59;;;10.61;83.21
17054;BME280;8643;48.824;11.422;2023-06-14T03:36:02;96511.94;;;10.67;82.96
17054;BME280;8643;48.824;11.422;2023-06-14T03:38:31;96518.09;;;10.76;81.92
17054;BME280;8643;48.824;11.422;2023-06-14T03:41:01;96521.28;;;10.78;81.99
17054;BME280;8643;48.824;11.422;2023-06-14T03:43:29;96525.84;;;10.87;81.14
17054;BME280;8643;48.824;11.422;2023-06-14T03:45:58;96520.72;;;10.85;81.66
17054;BME280;8643;48.824;11.422;2023-06-14T03:48:30;96524.38;;;10.89;81.77
17054;BME280;8643;48.824;11.422;2023-06-14T03:50:59;96529.81;;;11.01;80.74
17054;BME280;8643;48.824;11.422;2023-06-14T03:53:29;96524.56;;;11.09;81.33
17054;BME280;8643;48.824;11.422;2023-06-14T03:55:58;96532.00;;;11.08;81.13
17054;BME280;8643;48.824;11.422;2023-06-14T03:58:36;96547.53;;;11.16;81.29
17054;BME280;8643;48.824;11.422;2023-06-14T04:01:06;96541.69;;;11.18;81.48
17054;BME280;8643;48.824;11.422;2023-06-14T04:03:36;96541.56;;;11.27;81.65
17054;BME280;8643;48.824;11.422;2023-06-14T04:06:05;96543.16;;;11.28;81.60
17054;BME280;8643;48.824;11.422;2023-06-14T04:08:35;96549.53;;;11.44;81.01
17054;BME280;8643;48.824;11.422;2023-06-14T04:11:03;96557.06;;;11.47;81.08
17054;BME280;8643;48.824;11.422;2023-06-14T04:13:31;96555.63;;;11.66;80.98
17054;BME280;8643;48.824;11.422;2023-06-14T04:16:04;96555.56;;;11.78;80.24
17054;BME280;8643;48.824;11.422;2023-06-14T04:18:36;96551.34;;;11.81;80.26
17054;BME280;8643;48.824;11.422;2023-06-14T04:21:05;96554.41;;;11.91;80.31
17054;BME280;8643;48.824;11.422;2023-06-14T04:23:35;96559.38;;;12.02;80.51
17054;BME280;8643;48.824;11.422;2023-06-14T04:26:05;96560.03;;;12.11;79.48
17054;BME280;8643;48.824;11.422;2023-06-14T04:28:34;96556.16;;;12.28;78.85
17054;BME280;8643;48.824;11.422;2023-06-14T04:31:10;96559.72;;;12.44;78.22
17054;BME280;8643;48.824;11.422;2023-06-14T04:33:40;96558.31;;;12.51;77.85
17054;BME280;8643;48.824;11.422;2023-06-14T04:36:17;96562.75;;;12.55;78.41
17054;BME280;8643;48.824;11.422;2023-06-14T04:38:48;96559.19;;;12.55;77.80
17054;BME280;8643;48.824;11.422;2023-06-14T04:41:24;96561.84;;;12.67;77.81
17054;BME280;8643;48.824;11.422;2023-06-14T04:43:59;96566.72;;;12.74;77.10
17054;BME280;8643;48.824;11.422;2023-06-14T04:46:33;96567.78;;;12.85;77.08
17054;BME280;8643;48.824;11.422;2023-06-14T04:49:18;96565.59;;;12.91;76.48
17054;BME280;8643;48.824;11.422;2023-06-14T04:51:47;96569.47;;;12.90;76.58
17054;BME280;8643;48.824;11.422;2023-06-14T04:54:18;96570.88;;;12.99;76.42
17054;BME280;8643;48.824;11.422;2023-06-14T04:56:47;96573.63;;;13.15;76.11
17054;BME280;8643;48.824;11.422;2023-06-14T04:59:16;96573.13;;;13.29;76.31
17054;BME280;8643;48.824;11.422;2023-06-14T05:01:46;96576.44;;;13.35;75.43
17054;BME280;8643;48.824;11.422;2023-06-14T05:04:16;96581.03;;;13.47;75.57
17054;BME280;8643;48.824;11.422;2023-06-14T05:06:46;96575.22;;;13.52;75.88
17054;BME280;8643;48.824;11.422;2023-06-14T05:09:15;96578.66;;;13.65;74.83
17054;BME280;8643;48.824;11.422;2023-06-14T05:11:44;96581.34;;;13.61;75.03
17054;BME280;8643;48.824;11.422;2023-06-14T05:14:15;96583.22;;;13.77;74.84
17054;BME280;8643;48.824;11.422;2023-06-14T05:16:44;96581.72;;;13.79;74.31
17054;BME280;8643;48.824;11.422;2023-06-14T05:19:13;96580.28;;;13.85;74.08
17054;BME280;8643;48.824;11.422;2023-06-14T05:21:42;96584.75;;;13.93;73.87
17054;BME280;8643;48.824;11.422;2023-06-14T05:24:12;96586.13;;;14.03;73.97
17054;BME280;8643;48.824;11.422;2023-06-14T05:26:41;96582.06;;;14.17;73.05
17054;BME280;8643;48.824;11.422;2023-06-14T05:29:09;96589.72;;;14.27;71.92
17054;BME280;8643;48.824;11.422;2023-06-14T05:31:37;96589.22;;;14.41;71.83
17054;BME280;8643;48.824;11.422;2023-06-14T05:34:06;96591.94;;;14.60;71.99
17054;BME280;8643;48.824;11.422;2023-06-14T05:36:35;96593.84;;;14.79;70.74
17054;BME280;8643;48.824;11.422;2023-06-14T05:39:04;96606.09;;;14.82;70.39
17054;BME280;8643;48.824;11.422;2023-06-14T05:41:35;96610.19;;;14.92;69.15
17054;BME280;8643;48.824;11.422;2023-06-14T05:44:03;96606.56;;;14.88;69.58
17054;BME280;8643;48.824;11.422;2023-06-14T05:46:32;96618.03;;;15.13;70.10
17054;BME280;8643;48.824;11.422;2023-06-14T05:49:01;96617.94;;;15.32;69.02
17054;BME280;8643;48.824;11.422;2023-06-14T05:51:30;96613.25;;;15.36;68.44
17054;BME280;8643;48.824;11.422;2023-06-14T05:53:59;96618.75;;;15.60;67.35
17054;BME280;8643;48.824;11.422;2023-06-14T05:56:27;96606.94;;;15.89;66.91
17054;BME280;8643;48.824;11.422;2023-06-14T05:58:57;96614.97;;;16.36;67.58
17054;BME280;8643;48.824;11.422;2023-06-14T06:01:26;96611.41;;;16.69;64.73
17054;BME280;8643;48.824;11.422;2023-06-14T06:03:55;96615.41;;;17.16;62.10
17054;BME280;8643;48.824;11.422;2023-06-14T06:06:24;96611.00;;;17.67;61.46
17054;BME280;8643;48.824;11.422;2023-06-14T06:08:53;96617.22;;;18.16;57.75
17054;BME280;8643;48.824;11.422;2023-06-14T06:11:22;96619.59;;;18.25;56.87
17054;BME280;8643;48.824;11.422;2023-06-14T06:13:50;96621.31;;;18.62;57.09
17054;BME280;8643;48.824;11.422;2023-06-14T06:16:20;96624.53;;;18.85;56.05
17054;BME280;8643;48.824;11.422;2023-06-14T06:18:48;96628.16;;;19.18;56.55
17054;BME280;8643;48.824;11.422;2023-06-14T06:21:17;96624.56;;;19.54;55.10
17054;BME280;8643;48.824;11.422;2023-06-14T06:23:45;96621.41;;;19.59;53.38
17054;BME280;8643;48.824;11.422;2023-06-14T06:26:14;96621.75;;;19.86;51.04
17054;BME280;8643;48.824;11.422;2023-06-14T06:28:43;96634.47;;;19.66;50.86
17054;BME280;8643;48.824;11.422;2023-06-14T06:31:11;96626.53;;;19.82;50.34
17054;BME280;8643;48.824;11.422;2023-06-14T06:33:41;96645.91;;;20.07;49.70
17054;BME280;8643;48.824;11.422;2023-06-14T06:36:10;96644.53;;;20.59;50.18
17054;BME280;8643;48.824;11.422;2023-06-14T06:38:39;96645.63;;;20.83;48.63
17054;BME280;8643;48.824;11.422;2023-06-14T06:41:08;96640.81;;;20.87;49.04
17054;BME280;8643;48.824;11.422;2023-06-14T06:43:36;96639.78;;;21.22;48.05
17054;BME280;8643;48.824;11.422;2023-06-14T06:46:05;96641.50;;;21.02;45.93
17054;BME280;8643;48.824;11.422;2023-06-14T06:48:33;96641.66;;;21.36;48.18
17054;BME280;8643;48.824;11.422;2023-06-14T06:51:03;96655.56;;;21.36;47.53
17054;BME280;8643;48.824;11.422;2023-06-14T06:53:32;96651.03;;;21.60;46.22
17054;BME280;8643;48.824;11.422;2023-06-14T06:56:11;96649.66;;;21.79;45.08
17054;BME280;8643;48.824;11.422;2023-06-14T06:58:39;96653.63;;;21.78;46.71
17054;BME280;8643;48.824;11.422;2023-06-14T07:01:08;96658.84;;;21.76;45.34
17054;BME280;8643;48.824;11.422;2023-06-14T07:03:37;96662.81;;;22.17;44.22
17054;BME280;8643;48.824;11.422;2023-06-14T07:06:07;96652.44;;;22.83;45.41
17054;BME280;8643;48.824;11.422;2023-06-14T07:08:35;96659.50;;;22.64;43.89
17054;BME280;8643;48.824;11.422;2023-06-14T07:11:05;96660.94;;;22.76;45.54
17054;BME280;8643;48.824;11.422;2023-06-14T07:13:34;96664.22;;;23.25;43.10
17054;BME280;8643;48.824;11.422;2023-06-14T07:16:05;96666.19;;;23.28;43.96
17054;BME280;8643;48.824;11.422;2023-06-14T07:18:34;96663.66;;;23.37;44.21
17054;BME280;8643;48.824;11.422;2023-06-14T07:21:04;96660.75;;;23.92;42.55
17054;BME280;8643;48.824;11.422;2023-06-14T07:23:34;96675.56;;;24.52;42.61
17054;BME280;8643;48.824;11.422;2023-06-14T07:26:03;96675.44;;;24.40;45.84
17054;BME280;8643;48.824;11.422;2023-06-14T07:28:33;96674.78;;;24.92;45.41
17054;BME280;8643;48.824;11.422;2023-06-14T07:31:02;96677.94;;;25.31;42.44
17054;BME280;8643;48.824;11.422;2023-06-14T07:33:30;96678.31;;;25.33;42.13
17054;BME280;8643;48.824;11.422;2023-06-14T07:35:59;96685.56;;;25.30;40.12
17054;BME280;8643;48.824;11.422;2023-06-14T07:38:28;96688.94;;;24.45;38.20
17054;BME280;8643;48.824;11.422;2023-06-14T07:40:57;96686.91;;;23.31;40.68
17054;BME280;8643;48.824;11.422;2023-06-14T07:43:26;96688.00;;;22.10;43.34
17054;BME280;8643;48.824;11.422;2023-06-14T07:45:55;96691.94;;;22.12;47.92
17054;BME280;8643;48.824;11.422;2023-06-14T07:48:34;96692.19;;;22.29;48.14
17054;BME280;8643;48.824;11.422;2023-06-14T07:51:03;96689.81;;;21.82;46.90
17054;BME280;8643;48.824;11.422;2023-06-14T07:53:31;96692.09;;;21.49;47.26
17054;BME280;8643;48.824;11.422;2023-06-14T07:56:01;96699.03;;;21.75;46.69
17054;BME280;8643;48.824;11.422;2023-06-14T07:58:30;96699.66;;;22.39;48.25
17054;BME280;8643;48.824;11.422;2023-06-14T08:00:58;96701.13;;;22.82;45.41
17054;BME280;8643;48.824;11.422;2023-06-14T08:03:28;96692.22;;;23.21;43.81
17054;BME280;8643;48.824;11.422;2023-06-14T08:05:58;96700.53;;;22.67;42.79
17054;BME280;8643;48.824;11.422;2023-06-14T08:08:27;96699.66;;;22.70;44.91
17054;BME280;8643;48.824;11.422;2023-06-14T08:10:56;96707.59;;;23.84;44.42
17054;BME280;8643;48.824;11.422;2023-06-14T08:13:26;96703.13;;;23.39;42.75
17054;BME280;8643;48.824;11.422;2023-06-14T08:15:54;96700.81;;;23.03;43.01
17054;BME280;8643;48.824;11.422;2023-06-14T08:18:24;96704.78;;;22.41;44.67
17054;BME280;8643;48.824;11.422;2023-06-14T08:20:53;96705.09;;;22.50;46.52
17054;BME280;8643;48.824;11.422;2023-06-14T08:23:21;96701.59;;;22.77;46.39
17054;BME280;8643;48.824;11.422;2023-06-14T08:25:51;96703.66;;;21.93;44.88
17054;BME280;8643;48.824;11.422;2023-06-14T08:28:20;96714.34;;;23.63;45.18
17054;BME280;8643;48.824;11.422;2023-06-14T08:30:49;96704.09;;;22.33;47.22
17054;BME280;8643;48.824;11.422;2023-06-14T08:33:18;96705.91;;;22.09;45.64
17054;BME280;8643;48.824;11.422;2023-06-14T08:35:47;96710.69;;;22.81;45.24
17054;BME280;8643;48.824;11.422;2023-06-14T08:38:15;96716.75;;;24.32;42.52
17054;BME280;8643;48.824;11.422;2023-06-14T08:40:48;96719.72;;;25.41;43.86
17054;BME280;8643;48.824;11.422;2023-06-14T08:43:19;96721.09;;;24.57;40.45
17054;BME280;8643;48.824;11.422;2023-06-14T08:45:53;96720.31;;;25.13;41.03
17054;BME280;8643;48.824;11.422;2023-06-14T08:48:26;96723.94;;;25.99;39.59
17054;BME280;8643;48.824;11.422;2023-06-14T08:50:56;96718.75;;;26.60;39.23
17054;BME280;8643;48.824;11.422;2023-06-14T08:53:31;96726.06;;;26.99;35.90
17054;BME280;8643;48.824;11.422;2023-06-14T08:56:05;96731.88;;;25.35;38.33
17054;BME280;8643;48.824;11.422;2023-06-14T08:58:35;96728.63;;;26.35;39.60
17054;BME280;8643;48.824;11.422;2023-06-14T09:01:06;96725.38;;;26.95;37.17
17054;BME280;8643;48.824;11.422;2023-06-14T09:03:36;96726.09;;;27.12;38.03
17054;BME280;8643;48.824;11.422;2023-06-14T09:06:08;96717.22;;;27.78;37.07
17054;BME280;8643;48.824;11.422;2023-06-14T09:08:43;96722.53;;;27.76;37.95
17054;BME280;8643;48.824;11.422;2023-06-14T09:11:12;96723.81;;;28.23;35.48
17054;BME280;8643;48.824;11.422;2023-06-14T09:13:42;96727.84;;;28.22;34.87
17054;BME280;8643;48.824;11.422;2023-06-14T09:16:12;96722.88;;;29.05;35.82
17054;BME280;8643;48.824;11.422;2023-06-14T09:18:41;96722.91;;;27.10;34.55
17054;BME280;8643;48.824;11.422;2023-06-14T09:21:12;96722.13;;;27.10;36.37
17054;BME280;8643;48.824;11.422;2023-06-14T09:23:41;96728.31;;;27.04;36.68
17054;BME280;8643;48.824;11.422;2023-06-14T09:26:11;96725.22;;;28.27;33.40
17054;BME280;8643;48.824;11.422;2023-06-14T09:28:44;96721.69;;;27.88;32.82
17054;BME280;8643;48.824;11.422;2023-06-14T09:31:16;96721.81;;;27.07;33.57
17054;BME280;8643;48.824;11.422;2023-06-14T09:33:48;96725.84;;;28.09;34.20
17054;BME280;8643;48.824;11.422;2023-06-14T09:36:21;96728.78;;;28.76;33.80
17054;BME280;8643;48.824;11.422;2023-06-14T09:38:52;96733.34;;;29.27;33.07
17054;BME280;8643;48.824;11.422;2023-06-14T09:41:30;96726.03;;;28.63;33.51
17054;BME280;8643;48.824;11.422;2023-06-14T09:44:00;96723.81;;;28.80;33.34
17054;BME280;8643;48.824;11.422;2023-06-14T09:46:37;96730.22;;;28.80;32.66
17054;BME280;8643;48.824;11.422;2023-06-14T09:49:07;96734.81;;;29.09;32.66
17054;BME280;8643;48.824;11.422;2023-06-14T09:51:43;96733.44;;;28.69;30.27
17054;BME280;8643;48.824;11.422;2023-06-14T09:54:16;96727.94;;;28.88;30.45
17054;BME280;8643;48.824;11.422;2023-06-14T09:56:49;96726.72;;;28.54;32.94
17054;BME280;8643;48.824;11.422;2023-06-14T09:59:26;96726.22;;;29.13;31.32
17054;BME280;8643;48.824;11.422;2023-06-14T10:02:07;96724.34;;;29.41;33.06
17054;BME280;8643;48.824;11.422;2023-06-14T10:04:39;96723.84;;;29.11;29.10
17054;BME280;8643;48.824;11.422;2023-06-14T10:07:19;96723.78;;;30.05;27.89
17054;BME280;8643;48.824;11.422;2023-06-14T10:09:48;96730.75;;;30.41;33.02
17054;BME280;8643;48.824;11.422;2023-06-14T10:12:17;96722.47;;;29.47;29.21
17054;BME280;8643;48.824;11.422;2023-06-14T10:14:50;96732.78;;;28.87;29.50
17054;BME280;8643;48.824;11.422;2023-06-14T10:17:35;96725.09;;;29.32;31.56
17054;BME280;8643;48.824;11.422;2023-06-14T10:20:21;96723.66;;;28.61;29.27
17054;BME280;8643;48.824;11.422;2023-06-14T10:23:02;96717.00;;;29.43;29.51
17054;BME280;8643;48.824;11.422;2023-06-14T10:25:33;96715.72;;;29.85;29.29
17054;BME280;8643;48.824;11.422;2023-06-14T10:28:16;96721.09;;;28.76;30.49
17054;BME280;8643;48.824;11.422;2023-06-14T10:31:05;96721.81;;;29.43;30.05
17054;BME280;8643;48.824;11.422;2023-06-14T10:33:39;96725.34;;;30.06;28.04
17054;BME280;8643;48.824;11.422;2023-06-14T10:36:26;96725.69;;;30.36;30.97
17054;BME280;8643;48.824;11.422;2023-06-14T10:38:59;96720.59;;;29.44;28.96
17054;BME280;8643;48.824;11.422;2023-06-14T10:41:29;96717.16;;;27.56;30.70
17054;BME280;8643;48.824;11.422;2023-06-14T10:44:39;96718.84;;;25.28;33.21
17054;BME280;8643;48.824;11.422;2023-06-14T10:47:10;96714.41;;;24.07;34.64
17054;BME280;8643;48.824;11.422;2023-06-14T10:49:43;96716.53;;;24.43;31.83
17054;BME280;8643;48.824;11.422;2023-06-14T10:52:14;96714.91;;;25.58;32.27
17054;BME280;8643;48.824;11.422;2023-06-14T10:55:06;96709.34;;;27.73;33.70
17054;BME280;8643;48.824;11.422;2023-06-14T10:57:40;96708.66;;;28.64;30.93
17054;BME280;8643;48.824;11.422;2023-06-14T11:00:14;96708.69;;;29.49;31.71
17054;BME280;8643;48.824;11.422;2023-06-14T11:06:22;96701.06;;;30.37;28.21
17054;BME280;8643;48.824;11.422;2023-06-14T11:09:30;96707.63;;;30.89;31.36
17054;BME280;8643;48.824;11.422;2023-06-14T11:12:09;96699.38;;;32.04;28.41
17054;BME280;8643;48.824;11.422;2023-06-14T11:14:39;96697.66;;;30.51;27.51
17054;BME280;8643;48.824;11.422;2023-06-14T11:17:08;96708.75;;;29.58;28.64
17054;BME280;8643;48.824;11.422;2023-06-14T11:19:36;96700.13;;;28.55;30.18
17054;BME280;8643;48.824;11.422;2023-06-14T11:22:06;96704.56;;;28.21;30.27
17054;BME280;8643;48.824;11.422;2023-06-14T11:24:35;96697.41;;;26.92;33.15
17054;BME280;8643;48.824;11.422;2023-06-14T11:27:04;96700.97;;;24.82;34.85
17054;BME280;8643;48.824;11.422;2023-06-14T11:29:33;96703.13;;;23.12;38.23
17054;BME280;8643;48.824;11.422;2023-06-14T11:32:02;96698.91;;;23.28;38.11
17054;BME280;8643;48.824;11.422;2023-06-14T11:34:34;96709.41;;;23.20;38.80
17054;BME280;8643;48.824;11.422;2023-06-14T11:37:03;96707.84;;;22.84;39.21
17054;BME280;8643;48.824;11.422;2023-06-14T11:39:33;96703.34;;;22.94;39.23
17054;BME280;8643;48.824;11.422;2023-06-14T11:42:04;96700.16;;;23.50;40.31
17054;BME280;8643;48.824;11.422;2023-06-14T11:44:33;96699.13;;;24.35;37.47
17054;BME280;8643;48.824;11.422;2023-06-14T11:47:04;96703.00;;;23.97;37.12
17054;BME280;8643;48.824;11.422;2023-06-14T11:49:35;96698.28;;;22.85;38.06
17054;BME280;8643;48.824;11.422;2023-06-14T11:52:04;96700.97;;;22.24;39.38
17054;BME280;8643;48.824;11.422;2023-06-14T11:54:35;96696.09;;;22.35;40.80
17054;BME280;8643;48.824;11.422;2023-06-14T11:57:04;96692.13;;;22.32;40.32
17054;BME280;8643;48.824;11.422;2023-06-14T11:59:38;96691.81;;;22.61;40.84
17054;BME280;8643;48.824;11.422;2023-06-14T12:02:07;96688.59;;;22.63;39.25
17054;BME280;8643;48.824;11.422;2023-06-14T12:04:36;96682.31;;;22.55;39.33
17054;BME280;8643;48.824;11.422;2023-06-14T12:07:12;96691.50;;;22.56;41.28
17054;BME280;8643;48.824;11.422;2023-06-14T12:10:04;96692.88;;;23.02;39.38
17054;BME280;8643;48.824;11.422;2023-06-14T12:12:37;96688.03;;;22.44;37.98
17054;BME280;8643;48.824;11.422;2023-06-14T12:15:08;96690.69;;;22.17;39.99
17054;BME280;8643;48.824;11.422;2023-06-14T12:17:39;96683.13;;;22.86;39.60
17054;BME280;8643;48.824;11.422;2023-06-14T12:20:11;96686.69;;;23.18;38.62
17054;BME280;8643;48.824;11.422;2023-06-14T12:22:51;96682.41;;;25.77;34.65
17054;BME280;8643;48.824;11.422;2023-06-14T12:25:32;96678.28;;;26.86;32.13
17054;BME280;8643;48.824;11.422;2023-06-14T12:28:06;96672.59;;;27.16;31.83
17054;BME280;8643;48.824;11.422;2023-06-14T12:30:36;96673.59;;;27.22;33.65
17054;BME280;8643;48.824;11.422;2023-06-14T12:33:05;96675.53;;;27.25;33.02
17054;BME280;8643;48.824;11.422;2023-06-14T12:35:34;96681.94;;;27.64;32.02
17054;BME280;8643;48.824;11.422;2023-06-14T12:38:03;96678.97;;;26.61;31.30
17054;BME280;8643;48.824;11.422;2023-06-14T12:40:33;96681.03;;;28.15;32.04
17054;BME280;8643;48.824;11.422;2023-06-14T12:43:02;96684.31;;;28.35;30.66
17054;BME280;8643;48.824;11.422;2023-06-14T12:45:31;96679.66;;;27.59;31.38
17054;BME280;8643;48.824;11.422;2023-06-14T12:47:59;96683.22;;;27.85;30.56
17054;BME280;8643;48.824;11.422;2023-06-14T12:50:28;96679.56;;;27.75;29.31
17054;BME280;8643;48.824;11.422;2023-06-14T12:52:57;96676.41;;;27.22;31.33
17054;BME280;8643;48.824;11.422;2023-06-14T12:55:26;96683.28;;;27.47;32.87
17054;BME280;8643;48.824;11.422;2023-06-14T12:57:56;96668.78;;;27.61;31.44
17054;BME280;8643;48.824;11.422;2023-06-14T13:00:24;96690.81;;;26.69;31.82
17054;BME280;8643;48.824;11.422;2023-06-14T13:02:54;96688.88;;;26.07;32.18
17054;BME280;8643;48.824;11.422;2023-06-14T13:05:22;96684.53;;;26.65;31.69
17054;BME280;8643;48.824;11.422;2023-06-14T13:07:51;96685.34;;;26.78;32.76
17054;BME280;8643;48.824;11.422;2023-06-14T13:10:19;96684.19;;;27.31;31.53
17054;BME280;8643;48.824;11.422;2023-06-14T13:12:48;96675.78;;;26.76;33.29
17054;BME280;8643;48.824;11.422;2023-06-14T13:15:18;96690.66;;;27.92;31.61
17054;BME280;8643;48.824;11.422;2023-06-14T13:17:47;96687.31;;;27.58;29.90
17054;BME280;8643;48.824;11.422;2023-06-14T13:20:16;96686.66;;;27.41;29.74
17054;BME280;8643;48.824;11.422;2023-06-14T13:22:47;96686.75;;;27.25;30.89